Time;durP1;ratioP1;P1;durP2;ratioP2;P2;SDS_P1;SDS_P2;PMS_P1;PMS_P2;Temp;Humidity;BMP_temperature;BMP_pressure;BME280_temperature;BME280_humidity;BME280_pressure;Samples;Min_cycle;Max_cycle;Signal;HPM_P1;HPM_P2
2022/06/23 00:01:57;;;;;;;10.05;6.93;;;15.20;99.90;;;;;;5074263;28;20081;-70
2022/06/23 00:04:26;;;;;;;8.98;5.82;;;15.80;99.90;;;;;;5073852;28;20047;-70
2022/06/23 00:07:18;;;;;;;5.65;4.43;;;15.20;99.90;;;;;;5057196;28;20040;-70
2022/06/23 00:09:44;;;;;;;7.60;5.63;;;15.00;99.90;;;;;;5066383;28;20056;-70
2022/06/23 00:12:18;;;;;;;7.10;6.03;;;15.60;99.90;;;;;;5073779;28;20123;-70
2022/06/23 00:14:56;;;;;;;7.38;5.90;;;15.00;99.90;;;;;;5073773;28;20337;-70
2022/06/23 00:17:24;;;;;;;7.18;5.18;;;14.60;99.90;;;;;;5092015;28;20032;-70
2022/06/23 00:19:50;;;;;;;7.18;5.85;;;14.60;99.90;;;;;;5072977;28;20490;-70
2022/06/23 00:22:21;;;;;;;9.18;6.68;;;17.10;99.90;;;;;;5073492;28;20047;-70
2022/06/23 00:24:48;;;;;;;7.95;5.95;;;14.80;99.90;;;;;;5073580;28;20397;-70
2022/06/23 00:27:17;;;;;;;8.43;6.20;;;15.00;99.90;;;;;;5074026;28;20044;-70
2022/06/23 00:29:47;;;;;;;8.70;6.05;;;14.80;99.90;;;;;;5060347;28;20036;-70
2022/06/23 00:32:14;;;;;;;9.20;7.75;;;14.80;99.90;;;;;;5061276;28;20032;-70
2022/06/23 00:34:43;;;;;;;6.28;5.30;;;14.70;99.90;;;;;;5078006;28;20040;-70
2022/06/23 00:37:18;;;;;;;6.93;5.85;;;15.10;99.90;;;;;;5096081;28;20032;-70
2022/06/23 00:39:54;;;;;;;7.97;6.15;;;14.60;99.90;;;;;;5076877;28;20082;-70
2022/06/23 00:42:23;;;;;;;7.50;5.78;;;14.60;99.90;;;;;;5095893;28;20046;-70
2022/06/23 00:44:56;;;;;;;9.30;6.05;;;14.50;99.90;;;;;;5077562;28;20036;-70
2022/06/23 00:47:27;;;;;;;10.38;5.90;;;16.20;99.90;;;;;;5077410;28;20040;-70
2022/06/23 00:50:03;;;;;;;7.65;5.35;;;14.60;99.90;;;;;;5076564;28;20043;-70
2022/06/23 00:52:37;;;;;;;8.57;6.63;;;14.80;99.90;;;;;;5077685;28;20063;-70
2022/06/23 00:55:13;;;;;;;9.43;6.65;;;14.70;99.90;;;;;;5077418;28;20371;-70
2022/06/23 00:57:48;;;;;;;11.48;6.03;;;14.70;99.90;;;;;;5077255;28;20132;-70
2022/06/23 01:00:37;;;;;;;6.85;6.15;;;14.70;99.90;;;;;;5076489;28;20619;-69
2022/06/23 01:03:02;;;;;;;10.60;7.00;;;14.70;99.90;;;;;;5095275;28;20501;-69
2022/06/23 01:05:56;;;;;;;9.02;6.82;;;15.50;99.90;;;;;;5077269;28;20044;-70
2022/06/23 01:08:40;;;;;;;10.07;7.28;;;14.50;99.90;;;;;;5095237;28;20079;-70
2022/06/23 01:11:13;;;;;;;6.90;5.50;;;14.50;99.90;;;;;;5094556;28;20040;-70
2022/06/23 01:13:43;;;;;;;8.38;6.85;;;14.50;99.90;;;;;;5095308;28;20036;-69
2022/06/23 01:16:24;;;;;;;9.70;6.25;;;14.70;99.90;;;;;;5076803;28;20032;-70
2022/06/23 01:19:42;;;;;;;8.63;5.80;;;14.50;99.90;;;;;;5076750;28;20032;-71
2022/06/23 01:22:29;;;;;;;6.60;5.22;;;14.40;99.90;;;;;;5077199;28;20389;-69
2022/06/23 01:25:24;;;;;;;7.22;5.60;;;14.50;99.90;;;;;;5076928;28;20036;-70
2022/06/23 01:28:15;;;;;;;7.28;5.90;;;14.60;99.90;;;;;;5060085;28;20040;-70
2022/06/23 01:31:12;;;;;;;7.65;5.80;;;14.50;99.90;;;;;;5093923;28;20506;-70
2022/06/23 01:33:48;;;;;;;9.00;6.57;;;14.50;99.90;;;;;;5076830;28;20067;-70
2022/06/23 01:36:20;;;;;;;8.73;6.35;;;14.60;99.90;;;;;;5094710;28;20498;-70
2022/06/23 01:39:11;;;;;;;8.15;6.78;;;14.60;99.90;;;;;;5076174;28;20501;-70
2022/06/23 01:41:42;;;;;;;7.78;6.00;;;14.60;99.90;;;;;;5076638;28;20047;-70
2022/06/23 01:44:46;;;;;;;9.70;6.30;;;14.50;99.90;;;;;;5076758;28;20512;-70
2022/06/23 01:47:23;;;;;;;7.05;5.53;;;14.60;99.90;;;;;;5094652;28;20045;-69
2022/06/23 01:49:55;;;;;;;8.02;6.75;;;14.30;99.90;;;;;;5093803;28;20086;-70
2022/06/23 01:52:21;;;;;;;9.35;7.13;;;14.50;99.90;;;;;;5076292;28;20493;-70
2022/06/23 01:54:54;;;;;;;10.02;6.82;;;14.50;99.90;;;;;;5094401;28;20039;-70
2022/06/23 01:57:58;;;;;;;8.43;6.30;;;14.50;99.90;;;;;;5094508;28;20406;-71
2022/06/23 02:00:25;;;;;;;9.57;6.38;;;14.40;99.90;;;;;;5084153;28;20421;-70
2022/06/23 02:02:58;;;;;;;9.55;6.70;;;14.90;99.90;;;;;;5094457;28;20448;-70
2022/06/23 02:05:54;;;;;;;11.25;7.18;;;14.50;99.90;;;;;;5075989;28;20590;-70
2022/06/23 02:08:45;;;;;;;8.93;6.40;;;14.30;99.90;;;;;;5092735;28;20059;-70
2022/06/23 02:11:29;;;;;;;8.63;6.00;;;14.30;99.90;;;;;;5093450;28;20039;-69
2022/06/23 02:14:00;;;;;;;8.13;6.50;;;14.20;99.90;;;;;;5059245;28;20043;-70
2022/06/23 02:16:41;;;;;;;8.45;6.65;;;14.30;99.90;;;;;;5076009;28;20040;-70
2022/06/23 02:19:15;;;;;;;8.07;6.50;;;14.40;99.90;;;;;;5075045;28;20071;-70
2022/06/23 02:21:59;;;;;;;12.27;7.15;;;16.20;99.90;;;;;;5075795;28;20040;-69
2022/06/23 02:24:31;;;;;;;11.50;7.40;;;14.30;99.90;;;;;;5073770;28;20040;-70
2022/06/23 02:27:17;;;;;;;8.68;6.35;;;14.40;99.90;;;;;;5093749;28;20379;-70
2022/06/23 02:29:47;;;;;;;11.57;7.85;;;14.30;99.90;;;;;;5074762;28;20076;-70
2022/06/23 02:32:38;;;;;;;7.13;6.00;;;14.20;99.90;;;;;;5058884;28;20072;-70
2022/06/23 02:35:30;;;;;;;10.63;7.93;;;14.20;99.90;;;;;;5075528;28;20493;-70
2022/06/23 02:38:02;;;;;;;11.75;7.28;;;14.20;99.90;;;;;;5058952;28;20397;-70
2022/06/23 02:40:30;;;;;;;9.05;7.00;;;14.20;99.90;;;;;;5074576;28;20528;-70
2022/06/23 02:43:01;;;;;;;11.57;7.20;;;15.20;99.90;;;;;;5075441;28;20039;-70
2022/06/23 02:45:58;;;;;;;8.35;6.65;;;14.20;99.90;;;;;;5093254;28;20158;-70
2022/06/23 02:48:42;;;;;;;9.98;6.75;;;14.30;99.90;;;;;;5075273;28;20082;-70
2022/06/23 02:51:42;;;;;;;10.98;7.75;;;14.20;99.90;;;;;;5073864;28;20097;-70
2022/06/23 02:54:30;;;;;;;13.20;7.90;;;14.20;99.90;;;;;;5075195;28;20044;-70
2022/06/23 02:57:02;;;;;;;12.13;8.20;;;14.10;99.90;;;;;;5075012;28;20038;-70
2022/06/23 02:59:34;;;;;;;11.15;8.00;;;14.20;99.90;;;;;;5074328;28;20079;-70
2022/06/23 03:02:08;;;;;;;12.18;8.73;;;14.00;99.90;;;;;;5093153;28;20043;-68
2022/06/23 03:04:59;;;;;;;11.40;7.93;;;14.00;99.90;;;;;;5093521;28;20039;-70
2022/06/23 03:07:34;;;;;;;13.13;9.02;;;14.00;99.90;;;;;;5074963;28;20028;-70
2022/06/23 03:10:16;;;;;;;10.50;8.18;;;14.20;99.90;;;;;;5074118;28;20043;-70
2022/06/23 03:12:51;;;;;;;12.80;8.87;;;14.20;99.90;;;;;;5093281;28;20075;-70
2022/06/23 03:15:25;;;;;;;13.27;9.07;;;14.10;99.90;;;;;;5092894;28;20066;-70
2022/06/23 03:18:04;;;;;;;13.30;9.35;;;14.00;99.90;;;;;;5092819;28;20038;-70
2022/06/23 03:20:44;;;;;;;14.20;9.73;;;14.20;99.90;;;;;;5057405;28;20406;-70
2022/06/23 03:23:15;;;;;;;10.82;7.75;;;14.90;99.90;;;;;;5073055;28;20075;-70
2022/06/23 03:25:50;;;;;;;9.43;7.57;;;14.20;99.90;;;;;;5074840;28;20122;-70
2022/06/23 03:28:23;;;;;;;12.27;9.05;;;14.10;99.90;;;;;;5074465;28;20504;-70
2022/06/23 03:30:57;;;;;;;;;;;14.20;99.90;;;;;;5074096;28;20394;-70
2022/06/23 03:33:33;;;;;;;12.85;8.95;;;14.00;99.90;;;;;;5092756;28;19916;-70
2022/06/23 03:36:24;;;;;;;10.35;7.97;;;14.00;99.90;;;;;;5092607;28;20447;-70
2022/06/23 03:41:56;;;;;;;11.53;8.03;;;14.60;99.90;;;;;;5074203;28;20048;-70
2022/06/23 03:44:30;;;;;;;15.27;9.23;;;14.10;99.90;;;;;;5074389;28;20036;-70
2022/06/23 03:47:02;;;;;;;11.23;7.75;;;14.10;99.90;;;;;;5074194;28;20130;-70
2022/06/23 03:49:47;;;;;;;10.50;7.57;;;14.10;99.90;;;;;;5073406;28;20391;-70
2022/06/23 03:52:36;;;;;;;10.35;7.88;;;14.10;99.90;;;;;;5074049;28;20185;-70
2022/06/23 03:55:36;;;;;;;12.23;7.65;;;14.20;99.90;;;;;;5092396;28;20036;-70
2022/06/23 03:58:13;;;;;;;12.23;8.68;;;14.10;99.90;;;;;;5074259;28;20390;-70
2022/06/23 04:00:52;;;;;;;10.23;8.27;;;14.20;99.90;;;;;;5091545;28;20040;-69
2022/06/23 04:03:44;;;;;;;11.55;8.95;;;14.20;99.90;;;;;;5056701;28;20043;-70
2022/06/23 04:06:16;;;;;;;12.85;8.95;;;14.10;99.90;;;;;;5073762;28;20058;-69
2022/06/23 04:08:50;;;;;;;12.45;9.07;;;14.20;99.90;;;;;;5074066;28;20044;-70
2022/06/23 04:14:05;;;;;;;14.45;8.70;;;14.30;99.90;;;;;;5073880;28;20097;-69
2022/06/23 04:16:33;;;;;;;13.25;8.68;;;14.20;99.90;;;;;;5073716;28;20051;-69
2022/06/23 04:19:10;;;;;;;14.35;9.73;;;14.40;99.90;;;;;;5091623;28;20047;-69
2022/06/23 04:21:43;;;;;;;11.95;8.85;;;14.50;99.90;;;;;;5073600;28;20139;-71
2022/06/23 04:24:16;;;;;;;14.30;9.73;;;14.50;99.90;;;;;;5072603;28;20427;-69
2022/06/23 04:26:46;;;;;;;15.35;10.57;;;14.40;99.90;;;;;;5073672;28;20607;-71
2022/06/23 04:29:18;;;;;;;14.23;8.93;;;14.60;99.90;;;;;;5091418;28;20512;-70
2022/06/23 04:31:50;;;;;;;16.02;9.15;;;14.60;99.90;;;;;;5056876;28;20048;-70
2022/06/23 04:34:29;;;;;;;13.37;8.93;;;14.80;99.90;;;;;;5073910;28;20123;-70
2022/06/23 04:36:55;;;;;;;11.93;8.93;;;14.50;99.90;;;;;;5073740;28;20378;-70
2022/06/23 04:39:31;;;;;;;12.73;9.23;;;14.60;99.90;;;;;;5091081;28;20044;-70
2022/06/23 04:42:13;;;;;;;14.05;8.38;;;14.90;99.90;;;;;;5091797;28;20051;-70
2022/06/23 04:44:49;;;;;;;15.55;9.50;;;14.70;99.90;;;;;;5056975;28;20028;-70
2022/06/23 04:47:23;;;;;;;13.15;9.02;;;14.60;99.90;;;;;;5091599;28;20456;-70
2022/06/23 04:50:01;;;;;;;13.10;8.75;;;14.80;99.90;;;;;;5072725;28;20048;-70
2022/06/23 04:52:29;;;;;;;11.50;8.52;;;14.80;99.90;;;;;;5056969;28;20040;-70
2022/06/23 04:55:01;;;;;;;10.45;7.55;;;14.90;99.90;;;;;;5073191;28;20028;-70
2022/06/23 04:57:37;;;;;;;13.68;8.57;;;15.10;99.90;;;;;;5091600;28;20044;-70
2022/06/23 05:00:04;;;;;;;12.45;7.68;;;14.90;99.90;;;;;;5090638;28;20044;-70
2022/06/23 05:02:39;;;;;;;10.85;8.35;;;15.00;99.90;;;;;;5091353;28;20055;-70
2022/06/23 05:05:08;;;;;;;11.02;8.05;;;15.10;99.90;;;;;;5091533;28;20044;-70
2022/06/23 05:07:42;;;;;;;13.88;9.60;;;15.20;99.90;;;;;;5073245;28;20051;-70
2022/06/23 05:10:28;;;;;;;13.82;8.20;;;15.20;99.90;;;;;;5090466;28;20566;-70
2022/06/23 05:13:01;;;;;;;12.18;7.40;;;15.20;99.90;;;;;;5073528;28;20179;-70
2022/06/23 05:15:35;;;;;;;11.13;8.13;;;15.20;99.90;;;;;;5093407;28;20033;-70
2022/06/23 05:18:13;;;;;;;13.50;8.32;;;15.60;99.90;;;;;;5095245;28;20036;-71
2022/06/23 05:20:39;;;;;;;11.48;8.07;;;15.50;99.90;;;;;;5076068;28;20036;-70
2022/06/23 05:23:05;;;;;;;11.40;8.18;;;15.70;99.90;;;;;;5076109;28;20066;-70
2022/06/23 05:25:34;;;;;;;12.90;8.20;;;15.80;99.90;;;;;;5076657;28;20036;-70
2022/06/23 05:28:04;;;;;;;13.02;9.48;;;16.10;99.90;;;;;;5060044;28;20085;-70
2022/06/23 05:30:37;;;;;;;12.68;7.40;;;15.70;99.90;;;;;;5094140;28;20070;-70
2022/06/23 05:33:25;;;;;;;12.38;8.85;;;15.70;99.90;;;;;;5095064;28;20046;-70
2022/06/23 05:35:56;;;;;;;16.35;7.82;;;16.00;99.90;;;;;;5094974;28;20044;-70
2022/06/23 05:38:46;;;;;;;12.07;8.43;;;16.10;99.90;;;;;;5076806;28;20047;-70
2022/06/23 05:41:35;;;;;;;14.98;8.02;;;16.20;99.90;;;;;;5075703;28;20047;-70
2022/06/23 05:44:07;;;;;;;12.05;7.85;;;16.10;99.90;;;;;;5076236;28;20047;-70
2022/06/23 05:46:40;;;;;;;11.52;7.22;;;16.40;99.90;;;;;;5076362;28;20079;-70
2022/06/23 05:49:31;;;;;;;12.27;8.68;;;16.50;99.90;;;;;;5075697;28;20047;-70
2022/06/23 05:52:17;;;;;;;13.68;8.02;;;17.80;99.90;;;;;;5075672;28;20529;-68
2022/06/23 05:54:48;;;;;;;15.13;9.07;;;16.70;99.90;;;;;;5098116;22;20051;-71
2022/06/23 05:57:30;;;;;;;12.65;8.07;;;16.80;99.90;;;;;;5076203;28;20040;-70
2022/06/23 06:00:14;;;;;;;11.35;7.85;;;17.00;99.90;;;;;;5075392;28;20493;-69
2022/06/23 06:03:16;;;;;;;10.05;8.18;;;17.10;99.90;;;;;;5075755;28;20044;-70
2022/06/23 06:05:45;;;;;;;13.82;8.60;;;17.10;99.90;;;;;;5076857;28;20087;-70
2022/06/23 06:08:24;;;;;;;10.43;8.05;;;18.10;99.90;;;;;;5059221;28;20044;-69
2022/06/23 06:10:51;;;;;;;10.50;8.35;;;17.40;99.90;;;;;;5093002;28;20103;-70
2022/06/23 06:13:33;;;;;;;11.02;8.18;;;17.70;99.90;;;;;;5075456;28;20055;-69
2022/06/23 06:16:00;;;;;;;11.95;8.15;;;18.00;99.90;;;;;;5075969;28;20042;-69
2022/06/23 06:18:31;;;;;;;12.27;7.55;;;17.60;99.90;;;;;;5075655;28;20036;-69
2022/06/23 06:21:02;;;;;;;12.43;7.30;;;18.50;99.90;;;;;;5074628;28;20040;-72
2022/06/23 06:23:41;;;;;;;9.65;7.70;;;18.90;99.90;;;;;;5092417;28;20075;-69
2022/06/23 06:26:14;;;;;;;11.23;8.00;;;18.00;99.90;;;;;;5074884;28;20138;-69
2022/06/23 06:28:39;;;;;;;;;;;18.20;99.90;;;;;;5075589;28;20040;-69
2022/06/23 06:31:13;;;;;;;10.63;7.82;;;18.30;99.90;;;;;;5092784;28;20381;-71
2022/06/23 06:34:11;;;;;;;14.10;8.73;;;19.20;99.90;;;;;;5093449;28;20032;-70
2022/06/23 06:36:43;;;;;;;11.73;7.97;;;18.40;99.90;;;;;;5075005;28;20540;-69
2022/06/23 06:39:39;;;;;;;11.35;7.32;;;19.40;99.90;;;;;;5074492;28;20032;-69
2022/06/23 06:42:18;;;;;;;11.52;7.10;;;19.50;99.90;;;;;;5076643;28;20052;-70
2022/06/23 06:44:48;;;;;;;9.10;7.57;;;19.90;99.90;;;;;;5058231;28;20040;-70
2022/06/23 06:47:25;;;;;;;9.70;7.10;;;19.30;99.90;;;;;;5075174;28;20476;-71
2022/06/23 06:49:53;;;;;;;10.50;7.85;;;19.90;99.90;;;;;;5073934;28;20401;-70
2022/06/23 06:52:19;;;;;;;10.88;7.68;;;19.60;99.90;;;;;;5093257;28;20036;-70
2022/06/23 06:54:51;;;;;;;12.43;7.55;;;19.90;99.90;;;;;;5074512;28;20419;-70
2022/06/23 06:57:39;;;;;;;11.90;8.18;;;20.30;99.90;;;;;;5092929;28;20044;-70
2022/06/23 07:00:22;;;;;;;11.65;7.38;;;19.50;99.90;;;;;;5057255;28;20040;-70
2022/06/23 07:02:57;;;;;;;9.10;6.57;;;19.70;99.90;;;;;;5074804;28;20071;-70
2022/06/23 07:05:44;;;;;;;16.00;8.07;;;19.90;99.90;;;;;;5075997;28;20116;-69
2022/06/23 07:08:34;;;;;;;10.95;7.70;;;20.10;99.90;;;;;;5074331;28;20040;-70
2022/06/23 07:11:31;;;;;;;11.48;7.95;;;20.00;99.90;;;;;;5073131;28;20188;-69
2022/06/23 07:14:07;;;;;;;10.57;7.22;;;20.20;99.90;;;;;;5073160;28;20131;-70
2022/06/23 07:16:56;;;;;;;10.95;7.20;;;20.20;99.90;;;;;;5074178;28;20032;-70
2022/06/23 07:19:35;;;;;;;10.88;8.00;;;20.40;99.90;;;;;;5091621;28;20405;-72
2022/06/23 07:22:17;;;;;;;11.63;7.10;;;20.70;99.90;;;;;;5074246;28;20459;-69
2022/06/23 07:24:48;;;;;;;12.38;8.25;;;20.50;99.90;;;;;;5091225;28;20032;-69
2022/06/23 07:27:39;;;;;;;10.73;6.72;;;20.80;99.90;;;;;;5092328;28;20079;-71
2022/06/23 07:30:18;;;;;;;12.90;7.00;;;20.60;99.90;;;;;;5073456;28;20074;-69
2022/06/23 07:32:57;;;;;;;12.48;6.65;;;20.70;99.90;;;;;;5073918;28;20040;-69
2022/06/23 07:35:43;;;;;;;9.05;6.13;;;20.90;99.90;;;;;;5073879;28;20123;-72
2022/06/23 07:38:15;;;;;;;11.85;5.82;;;21.00;99.90;;;;;;5056529;28;20036;-69
2022/06/23 07:40:59;;;;;;;7.35;5.38;;;21.00;99.90;;;;;;5056981;28;20375;-70
2022/06/23 07:43:49;;;;;;;7.50;5.40;;;21.40;99.90;;;;;;5092271;28;20115;-69
2022/06/23 07:46:15;;;;;;;9.20;6.00;;;21.40;99.90;;;;;;5073697;28;20069;-72
2022/06/23 07:48:42;;;;;;;7.25;5.63;;;21.50;99.90;;;;;;5073752;28;20537;-70
2022/06/23 07:51:09;;;;;;;9.43;5.68;;;21.50;99.90;;;;;;5072891;28;20047;-71
2022/06/23 07:53:39;;;;;;;10.38;6.65;;;21.80;99.90;;;;;;5091640;28;20054;-70
2022/06/23 07:56:08;;;;;;;9.18;6.15;;;21.60;99.90;;;;;;5073808;28;20158;-70
2022/06/23 07:58:36;;;;;;;11.73;6.72;;;21.90;99.90;;;;;;5073917;28;20048;-69
2022/06/23 08:01:14;;;;;;;9.38;6.18;;;22.10;99.90;;;;;;5091452;28;20063;-70
2022/06/23 08:04:06;;;;;;;7.00;5.38;;;22.10;99.90;;;;;;5073672;28;20068;-73
2022/06/23 08:06:34;;;;;;;9.65;6.13;;;22.20;99.90;;;;;;5064308;28;20055;-70
2022/06/23 08:09:10;;;;;;;7.07;5.35;;;22.20;99.90;;;;;;5073821;28;20397;-72
2022/06/23 08:14:30;;;;;;;9.32;5.78;;;22.40;99.90;;;;;;5073487;28;20044;-73
2022/06/23 08:16:56;;;;;;;10.40;6.00;;;22.50;99.90;;;;;;5073692;28;20127;-70
2022/06/23 08:19:29;;;;;;;8.35;5.70;;;22.50;99.90;;;;;;5072720;28;20114;-70
2022/06/23 08:22:15;;;;;;;8.30;5.50;;;22.90;99.90;;;;;;5073709;28;20032;-70
2022/06/23 08:24:44;;;;;;;8.50;5.40;;;22.80;99.90;;;;;;5072334;28;20497;-71
2022/06/23 08:27:13;;;;;;;8.80;5.70;;;22.90;99.90;;;;;;5073355;28;20067;-70
2022/06/23 08:29:49;;;;;;;9.50;5.60;;;23.00;99.90;;;;;;5090727;28;20058;-70
2022/06/23 08:32:15;;;;;;;6.13;4.75;;;23.00;99.90;;;;;;5073419;28;20068;-70
2022/06/23 08:34:53;;;;;;;6.45;4.65;;;23.60;99.90;;;;;;5073157;28;20036;-70
2022/06/23 08:37:22;;;;;;;7.93;4.65;;;23.20;99.90;;;;;;5073270;28;20043;-70
2022/06/23 08:40:12;;;;;;;8.50;5.70;;;23.30;99.90;;;;;;5072444;28;20043;-70
2022/06/23 08:42:50;;;;;;;7.97;4.93;;;23.40;99.90;;;;;;5091346;28;20036;-73
2022/06/23 08:45:27;;;;;;;8.68;4.40;;;23.30;99.90;;;;;;5073159;28;20051;-70
2022/06/23 08:47:57;;;;;;;10.20;4.80;;;23.40;99.90;;;;;;5073366;28;20051;-70
2022/06/23 08:50:33;;;;;;;5.90;4.43;;;;;;;;;;5075981;28;20071;-70
2022/06/23 08:53:27;;;;;;;5.40;3.80;;;25.30;99.90;;;;;;5095498;28;20036;-70
2022/06/23 08:56:33;;;;;;;6.88;4.15;;;23.60;99.90;;;;;;5053448;28;20135;-71
2022/06/23 08:59:24;;;;;;;8.20;4.82;;;23.90;99.90;;;;;;5046888;28;20048;-75
2022/06/23 09:02:22;;;;;;;7.43;4.45;;;23.60;99.90;;;;;;5077096;28;20040;-70
2022/06/23 09:05:23;;;;;;;5.50;4.38;;;23.90;99.90;;;;;;5089728;28;20416;-70
2022/06/23 09:07:54;;;;;;;4.57;4.00;;;24.00;99.90;;;;;;5034715;28;20055;-69
2022/06/23 09:10:31;;;;;;;7.35;3.70;;;24.10;99.90;;;;;;5094195;28;20052;-70
2022/06/23 09:13:02;;;;;;;4.90;3.42;;;24.60;99.90;;;;;;5077095;28;20047;-69
2022/06/23 09:16:06;;;;;;;6.25;3.50;;;24.60;99.90;;;;;;5076912;28;20036;-69
2022/06/23 09:18:43;;;;;;;6.55;4.00;;;24.40;99.90;;;;;;5076659;28;20043;-69
2022/06/23 09:21:08;;;;;;;7.22;3.65;;;24.50;99.90;;;;;;5094589;28;20044;-72
2022/06/23 09:23:55;;;;;;;5.53;3.75;;;24.70;99.90;;;;;;5075635;28;20043;-72
2022/06/23 09:26:36;;;;;;;5.25;3.50;;;24.70;99.90;;;;;;5076674;28;20086;-70
2022/06/23 09:29:14;;;;;;;8.68;3.58;;;24.80;99.90;;;;;;5076050;28;20130;-70
2022/06/23 09:31:53;;;;;;;7.75;3.58;;;;;;;;;;5076242;28;20464;-70
2022/06/23 09:34:27;;;;;;;9.07;3.78;;;25.00;99.90;;;;;;5076679;28;20036;-70
2022/06/23 09:37:15;;;;;;;9.80;3.70;;;25.20;99.90;;;;;;5094456;28;20040;-70
2022/06/23 09:40:09;;;;;;;6.63;3.72;;;25.50;99.90;;;;;;5093839;28;20036;-70
2022/06/23 09:43:06;;;;;;;6.28;3.22;;;25.50;99.90;;;;;;5086420;28;20505;-70
2022/06/23 09:45:48;;;;;;;4.28;2.80;;;25.30;99.90;;;;;;5076012;28;20050;-70
2022/06/23 09:48:41;;;;;;;8.50;3.75;;;25.60;99.90;;;;;;5094444;28;20155;-70
2022/06/23 09:51:18;;;;;;;;;;;25.50;99.90;;;;;;5093946;28;20048;-70
2022/06/23 09:54:10;;;;;;;7.55;3.80;;;25.50;99.90;;;;;;5094013;28;19998;-71
2022/06/23 09:56:45;;;;;;;4.88;3.15;;;25.40;99.90;;;;;;5075789;28;20050;-72
2022/06/23 09:59:33;;;;;;;5.63;3.22;;;25.50;99.90;;;;;;5075176;28;20562;-70
2022/06/23 10:02:10;;;;;;;3.88;3.05;;;25.60;99.50;;;;;;5075217;28;20036;-73
2022/06/23 10:04:39;;;;;;;4.43;2.72;;;25.90;99.30;;;;;;5075956;28;20075;-70
2022/06/23 10:07:23;;;;;;;5.57;3.05;;;26.00;99.30;;;;;;5075836;28;20075;-70
2022/06/23 10:10:19;;;;;;;13.02;4.28;;;25.90;99.30;;;;;;5075088;28;20450;-70
2022/06/23 10:13:03;;;;;;;4.40;2.78;;;26.40;99.50;;;;;;5093947;28;20101;-70
2022/06/23 10:15:52;;;;;;;4.68;3.10;;;26.30;98.20;;;;;;5093813;28;20036;-70
2022/06/23 10:18:18;;;;;;;4.75;2.60;;;26.30;98.80;;;;;;5058810;28;20520;-70
2022/06/23 10:20:48;;;;;;;4.57;2.65;;;26.30;98.90;;;;;;5074971;28;20044;-71
2022/06/23 10:23:28;;;;;;;3.70;2.88;;;26.50;98.20;;;;;;5074519;28;20044;-71
2022/06/23 10:26:22;;;;;;;4.90;2.40;;;26.70;98.60;;;;;;5075682;28;20043;-70
2022/06/23 10:29:01;;;;;;;5.38;2.40;;;26.70;98.70;;;;;;5094246;28;20046;-72
2022/06/23 10:31:44;;;;;;;7.78;2.83;;;26.90;98.30;;;;;;5075309;28;20044;-71
2022/06/23 10:34:18;;;;;;;3.45;2.13;;;27.10;97.60;;;;;;5075340;28;20039;-73
2022/06/23 10:37:11;;;;;;;5.00;2.88;;;27.10;97.70;;;;;;5075205;28;20043;-70
2022/06/23 10:39:37;;;;;;;5.40;2.28;;;27.00;97.30;;;;;;5074698;28;20040;-70
2022/06/23 10:42:44;;;;;;;3.53;1.90;;;27.10;96.60;;;;;;5093403;28;20413;-72
2022/06/23 10:45:31;;;;;;;3.58;2.05;;;27.20;96.00;;;;;;5081986;28;20071;-70
2022/06/23 10:48:02;;;;;;;7.70;2.55;;;27.30;96.90;;;;;;5093379;28;20063;-70
2022/06/23 10:50:43;;;;;;;5.55;2.72;;;27.00;96.20;;;;;;5074146;28;20101;-70
2022/06/23 10:53:14;;;;;;;2.60;1.92;;;27.40;97.30;;;;;;5074816;28;20517;-70
2022/06/23 10:56:10;;;;;;;5.40;2.22;;;27.50;95.90;;;;;;5092848;28;20036;-71
2022/06/23 10:58:45;;;;;;;6.85;3.33;;;27.80;96.20;;;;;;5075347;28;20036;-73
2022/06/23 11:01:17;;;;;;;6.28;2.50;;;27.50;96.50;;;;;;5092606;28;20111;-70
2022/06/23 11:03:42;;;;;;;3.28;2.22;;;27.80;96.60;;;;;;5058300;28;20402;-70
2022/06/23 11:06:20;;;;;;;6.07;2.60;;;28.10;96.70;;;;;;5074521;28;20043;-71
2022/06/23 11:09:25;;;;;;;5.28;2.95;;;27.90;96.40;;;;;;5092813;28;20051;-70
2022/06/23 11:11:57;;;;;;;8.38;2.45;;;28.30;96.00;;;;;;5073751;28;20040;-70
2022/06/23 11:14:59;;;;;;;7.07;2.67;;;27.80;95.90;;;;;;5074482;28;20044;-74
2022/06/23 11:17:54;;;;;;;4.40;2.60;;;28.00;96.30;;;;;;5092823;28;20036;-71
2022/06/23 11:20:33;;;;;;;6.38;2.20;;;27.90;96.00;;;;;;5073785;28;20622;-71
2022/06/23 11:23:05;;;;;;;5.40;2.55;;;27.90;96.20;;;;;;5073273;28;20418;-73
2022/06/23 11:25:55;;;;;;;2.88;2.25;;;28.30;96.40;;;;;;5092394;28;20506;-70
2022/06/23 11:28:34;;;;;;;5.00;2.60;;;28.30;96.20;;;;;;5074234;28;20085;-74
2022/06/23 11:31:30;;;;;;;3.10;2.28;;;27.90;95.80;;;;;;5056811;28;20047;-72
2022/06/23 11:34:24;;;;;;;4.20;2.45;;;28.20;96.30;;;;;;5092468;28;20036;-71
2022/06/23 11:37:13;;;;;;;4.10;2.33;;;28.60;96.20;;;;;;5091042;28;20036;-72
2022/06/23 11:39:49;;;;;;;3.78;2.17;;;28.80;96.60;;;;;;5091731;28;20490;-70
2022/06/23 11:42:30;;;;;;;7.25;2.17;;;28.60;96.60;;;;;;5074502;28;20036;-71
2022/06/23 11:45:17;;;;;;;8.40;2.53;;;28.90;96.70;;;;;;5074152;28;20089;-72
2022/06/23 11:48:08;;;;;;;5.93;2.58;;;28.70;95.30;;;;;;5092542;28;20032;-70
2022/06/23 11:50:54;;;;;;;4.47;2.55;;;28.70;95.80;;;;;;5073097;28;20040;-70
2022/06/23 11:53:45;;;;;;;6.75;2.38;;;28.90;96.10;;;;;;5059892;28;20044;-71
2022/06/23 11:56:26;;;;;;;4.72;2.60;;;29.00;95.60;;;;;;5088899;22;20043;-71
2022/06/23 11:59:00;;;;;;;3.58;2.22;;;29.10;95.70;;;;;;5093881;28;20038;-69
2022/06/23 12:01:28;;;;;;;3.67;2.35;;;29.00;96.00;;;;;;5112259;28;20122;-71
2022/06/23 12:04:35;;;;;;;5.35;2.30;;;29.00;95.90;;;;;;5077405;28;20074;-71
2022/06/23 12:07:39;;;;;;;6.07;2.63;;;29.30;95.70;;;;;;5065982;28;20055;-72
2022/06/23 12:10:25;;;;;;;6.55;2.78;;;29.30;95.00;;;;;;5035801;28;20057;-71
2022/06/23 12:12:54;;;;;;;4.88;2.60;;;29.40;96.40;;;;;;5090937;28;20032;-71
2022/06/23 12:15:29;;;;;;;5.65;2.63;;;29.20;95.60;;;;;;5090646;28;20511;-71
2022/06/23 12:18:04;;;;;;;5.63;2.63;;;29.50;95.20;;;;;;5074301;28;20493;-71
2022/06/23 12:20:54;;;;;;;4.10;2.35;;;29.40;95.60;;;;;;5073078;28;20051;-71
2022/06/23 12:23:38;;;;;;;7.72;2.55;;;29.70;95.20;;;;;;5072199;28;20514;-72
2022/06/23 12:26:25;;;;;;;3.40;2.47;;;29.70;95.00;;;;;;5091958;28;20075;-71
2022/06/23 12:29:25;;;;;;;3.92;2.35;;;29.60;94.40;;;;;;5073496;28;20127;-69
2022/06/23 12:32:00;;;;;;;6.32;2.78;;;30.00;95.40;;;;;;5073653;28;20040;-71
2022/06/23 12:34:31;;;;;;;3.00;2.20;;;29.90;94.80;;;;;;5090620;28;20040;-71
2022/06/23 12:37:32;;;;;;;6.97;2.40;;;30.20;95.50;;;;;;5073859;28;20032;-71
2022/06/23 12:40:09;;;;;;;4.35;2.10;;;30.20;95.00;;;;;;5072910;28;20529;-71
2022/06/23 12:42:39;;;;;;;8.07;3.10;;;30.00;94.30;;;;;;5073664;28;20050;-70
2022/06/23 12:45:15;;;;;;;5.47;2.05;;;30.20;95.10;;;;;;5091608;28;20047;-71
2022/06/23 12:47:47;;;;;;;5.75;2.10;;;30.30;95.00;;;;;;5057050;28;20083;-71
2022/06/23 12:50:43;;;;;;;3.38;2.30;;;30.50;94.80;;;;;;5072922;28;20037;-71
2022/06/23 12:53:14;;;;;;;5.00;2.33;;;30.50;94.70;;;;;;5073551;28;20051;-71
2022/06/23 12:56:05;;;;;;;4.25;2.63;;;30.60;93.60;;;;;;5056761;28;20173;-71
2022/06/23 12:58:54;;;;;;;4.88;2.10;;;30.60;93.60;;;;;;5091496;28;20421;-71
2022/06/23 13:01:44;;;;;;;2.78;2.00;;;30.60;94.50;;;;;;5091280;28;20044;-71
2022/06/23 13:04:31;;;;;;;4.70;1.98;;;30.60;93.80;;;;;;5064321;28;20090;-71
2022/06/23 13:07:02;;;;;;;3.65;2.03;;;30.50;93.70;;;;;;5091695;28;20124;-71
2022/06/23 13:09:56;;;;;;;3.40;2.30;;;30.60;93.60;;;;;;5090922;28;20043;-71
2022/06/23 13:12:42;;;;;;;4.63;2.20;;;30.80;93.20;;;;;;5073302;28;20048;-71
2022/06/23 13:15:14;;;;;;;3.72;2.05;;;30.70;92.90;;;;;;5091693;28;20032;-71
2022/06/23 13:17:56;;;;;;;2.25;1.80;;;31.00;93.50;;;;;;5073536;28;20039;-71
2022/06/23 13:20:27;;;;;;;4.60;2.70;;;30.90;93.10;;;;;;5072592;28;20047;-71
2022/06/23 13:23:09;;;;;;;4.50;1.90;;;31.00;93.50;;;;;;5071582;28;20494;-71
2022/06/23 13:25:42;;;;;;;4.78;2.10;;;31.20;92.80;;;;;;5091473;28;20101;-71
2022/06/23 13:28:22;;;;;;;3.50;1.80;;;31.20;93.30;;;;;;5073204;28;20509;-71
2022/06/23 13:30:50;;;;;;;4.88;2.42;;;32.00;93.50;;;;;;5072465;28;20040;-71
2022/06/23 13:33:28;;;;;;;2.05;1.85;;;31.10;92.70;;;;;;5073308;28;20392;-71
2022/06/23 13:36:00;;;;;;;2.75;2.17;;;31.20;92.30;;;;;;5074154;28;20036;-72
2022/06/23 13:39:17;;;;;;;2.88;1.83;;;31.20;92.70;;;;;;5076759;28;20044;-72
2022/06/23 13:42:08;;;;;;;4.88;1.90;;;31.10;92.40;;;;;;5060275;28;20048;-70
2022/06/23 13:45:03;;;;;;;2.45;1.63;;;31.20;92.40;;;;;;5094668;28;20615;-70
2022/06/23 13:47:41;;;;;;;3.28;1.98;;;31.70;92.70;;;;;;5076769;28;20036;-70
2022/06/23 13:50:36;;;;;;;5.22;2.63;;;31.60;92.00;;;;;;5092809;28;20032;-70
2022/06/23 13:53:09;;;;;;;7.40;2.22;;;31.60;92.60;;;;;;5093548;28;20079;-72
2022/06/23 13:55:44;;;;;;;4.82;2.33;;;31.50;92.30;;;;;;5059634;28;20043;-72
2022/06/23 13:58:44;;;;;;;3.53;2.00;;;32.20;92.30;;;;;;5094398;28;20036;-71